Jacksonville Naval Air Station
KNIP : now visible

Airfield :











YOU CAN JOIN US ON...

 
LOGIN :

Register | Disclaimer

   EN    FR    IT 

 









Legend :    VFR   Marginal VFR   IFR   Intensive IFR   Very Intensive IFR
Visi :
Ceiling :
>= 8 km
>= 3000ft
5 to 8 km
1000 to 3000 ft
1500m to 5 km
500 to 1000 ft
800 to 1500m
200 to 500 ft
< 800m
< 200 ft
Symbols :   Thunderstorms  Fog  Heavy snow  Heavy precipitations  Wind > 20 kt






- Airport Elevation : 21 ft


KNIP - Jacksonville Naval Air Station

CURRENT METAR :
  • 191653Z 13005KT 10SM SCT030 BKN250 31/24 A3004 RMK AO2 SLP167 T03060239 $

EXPIRED METARs :
  • 191553Z 12005KT 10SM SCT025 BKN250 30/24 A3005 RMK AO2 SLP170 T03000239
  • 191453Z 12005KT 10SM FEW020 BKN250 29/24 A3006 RMK AO2 SLP173 T02890244 52011

TAF COR TAF KNIP
Valid from the 19 at 15:00 until the 20 at 15:00 UTC


1915/2015 13005KT 9999 FEW030 BKN250 QNH3000INS
FM191800 14008KT 9999 VCSH SCT045CB SCT100 BKN250 QNH2996INS
TEMPO 1919/1923 VRB15G25KT 4800 TSRA BKN030CB OVC060
FM200200 VRB05KT 9999 FEW050 BKN250 QNH3001INS T33/1920Z T24/2011Z COR 1500 FN20016
KZJX FIR / North America



MET'MAP, your aeronautical weather chart ! - Copyright ORBIFLY December 2007 - Disclaimer

ORBIFLY MET'MAP TEAM :

Programming & Development : Alexandra Zaïnal
Original concept : Baudouin d'Aumeries
Technical & hardware support : Manuel Goepfert
Assistance : Marc-Olivier Méhu




SOURCES & CREDITS :

   NOAA       Earth
Advisory